Terminal Aerodrome Forecast
Issued by NWS

Home | Current Version | Previous Version | Text Only | Print | Product List | Glossary On
Versions: 1 2 3 4 5 6 7 8 9 10 11 12 13 14 15 16 17 18 19 20 21 22 23 24 25 26 27 28
000
FTUS41 KOKX 110541
TAFTEB
TAF
KTEB 110541Z 1106/1212 23005KT P6SM SCT030 OVC050
     FM110900 23005KT 6SM -SHSN OVC030
     FM111100 23005KT P6SM OVC030
     FM111400 27007KT P6SM SCT030
     FM111600 28009KT P6SM FEW030 FEW250
     FM112200 26005KT P6SM SCT030 BKN250
     FM120600 17004KT P6SM OVC100
     FM120800 VRB03KT P6SM -RASN SCT025 OVC100=

USA.gov is the U.S. government's official web portal to all federal, state and local government web resources and services.